createdAt,value
2019-03-18T00:02:26.848Z,0.60
2019-03-18T00:04:55.293Z,0.70
2019-03-18T00:07:24.182Z,0.50
2019-03-18T00:09:52.878Z,0.50
2019-03-18T00:12:21.624Z,0.60
2019-03-18T00:15:00.653Z,0.60
2019-03-18T00:17:21.195Z,0.60
2019-03-18T00:19:50.187Z,0.70
2019-03-18T00:22:19.153Z,0.70
2019-03-18T00:24:48.059Z,0.80
2019-03-18T00:27:16.449Z,0.83
2019-03-18T00:29:45.332Z,0.60
2019-03-18T00:32:13.998Z,0.50
2019-03-18T00:34:42.997Z,0.70
2019-03-18T00:37:11.833Z,0.50
2019-03-18T00:39:40.925Z,0.50
2019-03-18T00:42:09.417Z,0.60
2019-03-18T00:44:38.630Z,0.60
2019-03-18T00:47:07.380Z,0.60
2019-03-18T00:49:35.826Z,0.50
2019-03-18T00:52:04.689Z,0.60
2019-03-18T00:54:33.655Z,0.65
2019-03-18T00:57:02.495Z,0.60
2019-03-18T00:59:31.285Z,0.57
2019-03-18T01:02:00.268Z,0.60
2019-03-18T01:04:29.271Z,0.60
2019-03-18T01:06:58.301Z,0.62
2019-03-18T01:09:27.349Z,0.60
2019-03-18T01:11:55.723Z,0.50
2019-03-18T01:14:24.691Z,0.57
2019-03-18T01:16:53.502Z,0.60
2019-03-18T01:19:22.543Z,0.55
2019-03-18T01:21:52.004Z,0.85
2019-03-18T01:24:20.864Z,0.50
2019-03-18T01:26:49.909Z,0.50
2019-03-18T01:29:19.371Z,0.60
2019-03-18T01:31:48.091Z,0.60
2019-03-18T01:34:17.081Z,0.95
2019-03-18T01:36:45.989Z,0.60
2019-03-18T01:39:15.017Z,0.60
2019-03-18T01:41:44.067Z,0.70
2019-03-18T01:44:12.893Z,0.60
2019-03-18T01:46:41.819Z,0.60
2019-03-18T01:49:10.734Z,0.68
2019-03-18T01:51:39.626Z,0.60
2019-03-18T01:54:08.555Z,0.50
2019-03-18T01:56:37.449Z,0.50
2019-03-18T01:59:06.426Z,0.70
2019-03-18T02:01:35.602Z,0.50
2019-03-18T02:04:04.457Z,0.70
2019-03-18T02:06:33.474Z,0.50
2019-03-18T02:09:02.472Z,0.57
2019-03-18T02:11:31.713Z,0.60
2019-03-18T02:14:00.635Z,0.50
2019-03-18T02:16:29.111Z,0.60
2019-03-18T02:18:57.945Z,0.50
2019-03-18T02:21:27.205Z,0.85
2019-03-18T02:23:56.306Z,0.50
2019-03-18T02:26:24.988Z,0.57
2019-03-18T02:28:53.998Z,0.78
2019-03-18T02:31:23.027Z,0.70
2019-03-18T02:33:51.894Z,0.60
2019-03-18T02:36:21.029Z,1.10
2019-03-18T02:38:49.995Z,0.65
2019-03-18T02:41:19.043Z,0.50
2019-03-18T02:43:47.728Z,0.50
2019-03-18T02:46:16.647Z,0.50
2019-03-18T02:48:45.616Z,0.60
2019-03-18T02:51:14.697Z,0.60
2019-03-18T02:53:43.091Z,0.50
2019-03-18T02:56:14.395Z,0.70
2019-03-18T02:58:42.797Z,0.50
2019-03-18T03:01:11.697Z,0.80
2019-03-18T03:03:40.536Z,0.67
2019-03-18T03:06:11.111Z,0.70
2019-03-18T03:08:40.216Z,0.77
2019-03-18T03:11:10.376Z,0.50
2019-03-18T03:13:39.420Z,0.80
2019-03-18T03:16:08.524Z,0.60
2019-03-18T03:18:40.463Z,0.70
2019-03-18T03:21:09.086Z,0.50
2019-03-18T03:23:37.968Z,0.60
2019-03-18T03:26:06.851Z,0.50
2019-03-18T03:28:38.110Z,0.70
2019-03-18T03:31:06.775Z,0.53
2019-03-18T03:33:35.539Z,0.50
2019-03-18T03:36:04.307Z,0.60
2019-03-18T03:38:37.919Z,0.60
2019-03-18T03:41:07.247Z,0.50
2019-03-18T03:43:35.754Z,0.50
2019-03-18T03:46:04.634Z,0.50
2019-03-18T03:48:39.147Z,0.80
2019-03-18T03:51:08.190Z,0.70
2019-03-18T03:53:39.037Z,0.50
2019-03-18T03:56:08.461Z,0.60
2019-03-18T03:58:37.516Z,0.50
2019-03-18T04:01:16.899Z,0.50
2019-03-18T04:03:45.904Z,0.50
2019-03-18T04:06:14.479Z,0.55
2019-03-18T04:08:43.182Z,0.80
2019-03-18T04:11:12.488Z,0.55
2019-03-18T04:14:02.898Z,0.70
2019-03-18T04:16:37.525Z,0.60
2019-03-18T04:19:04.167Z,0.60
2019-03-18T04:21:33.280Z,0.50
2019-03-18T04:24:02.172Z,2.60
2019-03-18T04:26:31.396Z,2.40
2019-03-18T04:29:04.898Z,0.90
2019-03-18T04:31:33.385Z,1.20
2019-03-18T04:34:02.331Z,1.92
2019-03-18T04:36:31.289Z,0.90
2019-03-18T04:39:02.453Z,0.90
2019-03-18T04:41:31.289Z,0.82
2019-03-18T04:44:00.116Z,0.80
2019-03-18T04:46:29.271Z,0.90
2019-03-18T04:48:58.222Z,0.90
2019-03-18T04:51:26.712Z,0.80
2019-03-18T04:53:55.338Z,0.98
2019-03-18T04:56:24.009Z,0.70
2019-03-18T04:58:52.967Z,1.22
2019-03-18T05:01:22.025Z,0.70
2019-03-18T05:03:50.518Z,0.70
2019-03-18T05:06:19.636Z,0.70
2019-03-18T05:08:48.621Z,0.60
2019-03-18T05:11:27.781Z,0.80
2019-03-18T05:13:56.711Z,0.80
2019-03-18T05:16:25.266Z,0.60
2019-03-18T05:18:54.124Z,0.82
2019-03-18T05:21:22.978Z,0.80
2019-03-18T05:23:51.878Z,0.70
2019-03-18T05:26:22.322Z,1.00
2019-03-18T05:28:51.145Z,0.90
2019-03-18T05:31:20.058Z,1.10
2019-03-18T05:33:49.048Z,0.75
2019-03-18T05:36:17.578Z,0.70
2019-03-18T05:38:46.479Z,0.80
2019-03-18T05:41:15.422Z,0.80
2019-03-18T05:43:44.291Z,0.70
2019-03-18T05:46:16.980Z,1.00
2019-03-18T05:48:45.818Z,1.22
2019-03-18T05:51:15.174Z,1.10
2019-03-18T05:53:43.944Z,1.40
2019-03-18T05:56:13.071Z,1.10
2019-03-18T05:58:48.477Z,1.40
2019-03-18T06:01:17.488Z,0.90
2019-03-18T06:03:46.645Z,1.50
2019-03-18T06:06:15.696Z,1.17
2019-03-18T06:08:45.087Z,1.30
2019-03-18T06:11:14.058Z,1.25
2019-03-18T06:13:43.259Z,1.30
2019-03-18T06:16:12.106Z,0.80
2019-03-18T06:18:41.348Z,1.25
2019-03-18T06:21:09.953Z,1.83
2019-03-18T06:23:41.854Z,1.70
2019-03-18T06:26:11.024Z,2.10
2019-03-18T06:28:40.082Z,1.50
2019-03-18T06:31:09.122Z,1.75
2019-03-18T06:33:37.906Z,2.10
2019-03-18T06:36:06.924Z,1.70
2019-03-18T06:38:35.908Z,1.87
2019-03-18T06:41:04.829Z,2.03
2019-03-18T06:43:35.584Z,3.55
2019-03-18T06:46:04.238Z,3.90
2019-03-18T06:48:33.223Z,3.60
2019-03-18T06:51:02.209Z,3.60
2019-03-18T06:53:31.201Z,2.67
2019-03-18T06:56:00.427Z,2.80
2019-03-18T06:58:29.458Z,2.47
2019-03-18T07:00:58.401Z,2.20
2019-03-18T07:03:27.072Z,1.93
2019-03-18T07:05:56.035Z,2.00
2019-03-18T07:08:25.056Z,1.77
2019-03-18T07:10:54.301Z,1.10
2019-03-18T07:13:26.195Z,1.20
2019-03-18T07:16:00.165Z,1.00
2019-03-18T07:18:29.335Z,0.80
2019-03-18T07:20:58.382Z,0.87
2019-03-18T07:23:28.723Z,1.00
2019-03-18T07:26:00.480Z,0.70
2019-03-18T07:28:29.047Z,1.10
2019-03-18T07:30:57.827Z,0.90
2019-03-18T07:33:26.537Z,1.03
2019-03-18T07:35:55.207Z,0.87
2019-03-18T07:38:24.291Z,1.57
2019-03-18T07:40:53.656Z,1.67
2019-03-18T07:43:22.661Z,1.00
2019-03-18T07:45:51.624Z,0.73
2019-03-18T07:48:30.279Z,0.80
2019-03-18T07:50:50.962Z,1.10
2019-03-18T07:53:19.794Z,1.07
2019-03-18T07:55:48.793Z,0.93
2019-03-18T07:58:17.736Z,0.90
2019-03-18T08:00:46.581Z,0.90
2019-03-18T08:03:15.568Z,0.73
2019-03-18T08:05:44.587Z,0.80
2019-03-18T08:08:13.553Z,0.70
2019-03-18T08:10:41.908Z,0.70
2019-03-18T08:13:10.991Z,1.00
2019-03-18T08:15:40.067Z,0.73
2019-03-18T08:18:09.559Z,0.70
2019-03-18T08:20:38.291Z,1.20
2019-03-18T08:23:13.544Z,0.87
2019-03-18T08:25:42.429Z,8.27
2019-03-18T08:28:11.463Z,2.27
2019-03-18T08:30:40.228Z,1.40
2019-03-18T08:33:08.847Z,1.20
2019-03-18T08:35:37.681Z,0.90
2019-03-18T08:38:06.795Z,1.00
2019-03-18T08:40:35.923Z,1.00
2019-03-18T08:43:04.909Z,1.17
2019-03-18T08:45:33.949Z,1.20
2019-03-18T08:48:11.291Z,1.23
2019-03-18T08:50:42.098Z,1.20
2019-03-18T08:53:11.233Z,1.00
2019-03-18T08:55:43.704Z,1.87
2019-03-18T08:58:12.598Z,37.17
2019-03-18T09:00:41.602Z,5.27
2019-03-18T09:03:10.549Z,2.50
2019-03-18T09:05:39.268Z,1.10
2019-03-18T09:08:07.741Z,1.27
2019-03-18T09:10:36.758Z,0.80
2019-03-18T09:13:05.819Z,1.10
2019-03-18T09:15:34.630Z,1.13
2019-03-18T09:18:03.177Z,1.50
2019-03-18T09:20:32.206Z,1.80
2019-03-18T09:23:01.636Z,1.70
2019-03-18T09:25:30.835Z,2.08
2019-03-18T09:27:59.865Z,3.37
2019-03-18T09:30:29.365Z,1.27
2019-03-18T09:32:58.462Z,1.57
2019-03-18T09:35:27.571Z,1.00
2019-03-18T09:37:56.516Z,1.30
2019-03-18T09:40:25.074Z,1.50
2019-03-18T09:42:53.808Z,1.00
2019-03-18T09:45:22.900Z,0.90
2019-03-18T09:47:51.537Z,1.30
2019-03-18T09:50:20.510Z,1.40
2019-03-18T09:52:49.627Z,1.47
2019-03-18T09:55:18.079Z,1.42
2019-03-18T09:57:47.046Z,1.57
2019-03-18T10:00:15.609Z,1.40
2019-03-18T10:02:44.480Z,1.20
2019-03-18T10:05:13.550Z,1.95
2019-03-18T10:07:42.255Z,1.98
2019-03-18T10:10:11.259Z,2.25
2019-03-18T10:12:41.103Z,1.92
2019-03-18T10:15:11.471Z,3.70
2019-03-18T10:17:40.733Z,2.53
2019-03-18T10:20:09.983Z,2.37
2019-03-18T10:22:38.521Z,1.90
2019-03-18T10:25:07.681Z,1.80
2019-03-18T10:27:37.840Z,2.20
2019-03-18T10:30:07.308Z,1.80
2019-03-18T10:32:36.484Z,2.10
2019-03-18T10:35:08.483Z,2.65
2019-03-18T10:37:37.632Z,2.17
2019-03-18T10:40:08.352Z,2.37
2019-03-18T10:42:37.457Z,2.30
2019-03-18T10:45:06.731Z,1.90
2019-03-18T10:47:35.745Z,2.33
2019-03-18T10:50:05.375Z,1.93
2019-03-18T10:52:34.443Z,4.50
2019-03-18T10:55:19.943Z,6.63
2019-03-18T10:57:49.184Z,7.10
2019-03-18T11:00:18.552Z,2.00
2019-03-18T11:02:47.751Z,1.90
2019-03-18T11:05:16.931Z,2.20
2019-03-18T11:07:45.446Z,7.60
2019-03-18T11:10:14.067Z,4.30
2019-03-18T11:12:43.047Z,2.77
2019-03-18T11:15:12.033Z,3.53
2019-03-18T11:17:41.020Z,2.93
2019-03-18T11:20:10.381Z,4.50
2019-03-18T11:22:39.265Z,3.50
2019-03-18T11:25:08.386Z,2.87
2019-03-18T11:27:37.089Z,3.10
2019-03-18T11:30:06.289Z,3.20
2019-03-18T11:32:34.717Z,1.87
2019-03-18T11:35:03.562Z,1.40
2019-03-18T11:37:32.348Z,3.30
2019-03-18T11:40:01.335Z,1.50
2019-03-18T11:42:30.333Z,0.97
2019-03-18T11:44:59.319Z,3.50
2019-03-18T11:47:28.422Z,4.03
2019-03-18T11:49:57.376Z,3.80
2019-03-18T11:52:26.205Z,1.10
2019-03-18T11:54:55.182Z,1.23
2019-03-18T11:57:24.248Z,2.37
2019-03-18T11:59:53.149Z,1.80
2019-03-18T12:02:27.535Z,2.30
2019-03-18T12:05:00.060Z,1.47
2019-03-18T12:07:29.121Z,1.23
2019-03-18T12:09:58.244Z,1.67
2019-03-18T12:12:27.025Z,1.10
2019-03-18T12:14:59.498Z,0.73
2019-03-18T12:17:28.611Z,1.80
2019-03-18T12:19:57.804Z,1.50
2019-03-18T12:22:26.306Z,1.37
2019-03-18T12:24:55.385Z,1.60
2019-03-18T12:27:24.602Z,3.90
2019-03-18T12:29:53.561Z,2.80
2019-03-18T12:32:22.428Z,1.43
2019-03-18T12:34:51.513Z,1.43
2019-03-18T12:37:20.109Z,1.97
2019-03-18T12:39:48.943Z,1.17
2019-03-18T12:42:18.140Z,0.90
2019-03-18T12:44:46.998Z,0.77
2019-03-18T12:47:16.168Z,1.00
2019-03-18T12:49:45.323Z,1.50
2019-03-18T12:52:14.167Z,2.90
2019-03-18T12:54:43.108Z,4.03
2019-03-18T12:57:11.475Z,2.67
2019-03-18T12:59:40.983Z,1.10
2019-03-18T13:02:10.040Z,2.00
2019-03-18T13:04:39.350Z,0.93
2019-03-18T13:07:08.849Z,1.30
2019-03-18T13:09:40.065Z,1.07
2019-03-18T13:12:09.098Z,1.00
2019-03-18T13:14:38.251Z,1.30
2019-03-18T13:17:07.040Z,1.10
2019-03-18T13:19:35.554Z,1.37
2019-03-18T13:22:07.224Z,0.90
2019-03-18T13:24:36.301Z,0.90
2019-03-18T13:27:05.632Z,1.00
2019-03-18T13:29:35.164Z,1.60
2019-03-18T13:32:04.331Z,1.80
2019-03-18T13:34:33.569Z,0.93
2019-03-18T13:37:02.623Z,1.00
2019-03-18T13:39:35.431Z,1.00
2019-03-18T13:42:10.592Z,0.80
2019-03-18T13:44:49.190Z,3.33
2019-03-18T13:47:17.731Z,1.70
2019-03-18T13:49:47.210Z,4.57
2019-03-18T13:52:16.284Z,1.47
2019-03-18T13:54:49.685Z,4.13
2019-03-18T13:57:24.517Z,3.50
2019-03-18T13:59:53.576Z,1.30
2019-03-18T14:02:22.594Z,1.70
2019-03-18T14:04:51.616Z,1.80
2019-03-18T14:07:22.459Z,1.63
2019-03-18T14:09:51.160Z,1.07
2019-03-18T14:12:20.109Z,0.90
2019-03-18T14:14:49.181Z,1.20
2019-03-18T14:17:18.453Z,1.17
2019-03-18T14:19:47.574Z,1.33
2019-03-18T14:22:18.772Z,1.07
2019-03-18T14:24:48.016Z,1.10
2019-03-18T14:27:16.981Z,0.90
2019-03-18T14:29:45.576Z,0.70
2019-03-18T14:32:14.756Z,1.50
2019-03-18T14:34:44.222Z,1.00
2019-03-18T14:37:23.096Z,0.90
2019-03-18T14:39:53.100Z,1.50
2019-03-18T14:42:26.173Z,1.50
2019-03-18T14:44:56.251Z,2.40
2019-03-18T14:47:28.796Z,5.37
2019-03-18T14:49:58.050Z,2.60
2019-03-18T14:52:27.104Z,1.33
2019-03-18T14:54:55.804Z,1.57
2019-03-18T14:57:24.751Z,1.20
2019-03-18T14:59:56.694Z,1.13
2019-03-18T15:02:29.098Z,1.00
2019-03-18T15:05:04.262Z,0.87
2019-03-18T15:07:33.965Z,1.00
2019-03-18T15:10:02.401Z,2.43
2019-03-18T15:12:31.746Z,1.40
2019-03-18T15:15:00.958Z,0.77
2019-03-18T15:17:29.552Z,1.00
2019-03-18T15:19:58.326Z,0.93
2019-03-18T15:22:27.472Z,0.93
2019-03-18T15:24:56.540Z,0.87
2019-03-18T15:27:25.823Z,0.80
2019-03-18T15:29:54.991Z,1.30
2019-03-18T15:32:30.799Z,1.13
2019-03-18T15:34:59.866Z,1.20
2019-03-18T15:37:29.116Z,1.17
2019-03-18T15:39:57.537Z,2.10
2019-03-18T15:42:26.460Z,3.80
2019-03-18T15:44:55.828Z,1.37
2019-03-18T15:47:24.865Z,1.10
2019-03-18T15:49:54.029Z,1.10
2019-03-18T15:52:22.969Z,1.40
2019-03-18T15:54:53.986Z,1.10
2019-03-18T15:57:29.398Z,1.00
2019-03-18T15:59:53.676Z,1.07
2019-03-18T16:02:22.234Z,9.33
2019-03-18T16:04:51.306Z,4.73
2019-03-18T16:07:20.282Z,5.63
2019-03-18T16:09:49.536Z,2.20
2019-03-18T16:12:18.570Z,2.60
2019-03-18T16:14:47.598Z,2.47
2019-03-18T16:17:16.548Z,4.50
2019-03-18T16:19:45.631Z,1.67
2019-03-18T16:22:23.447Z,3.47
2019-03-18T16:24:44.872Z,5.00
2019-03-18T16:27:29.080Z,2.17
2019-03-18T16:29:58.129Z,3.27
2019-03-18T16:32:26.877Z,4.20
2019-03-18T16:34:55.973Z,4.20
2019-03-18T16:37:24.419Z,2.90
2019-03-18T16:39:56.766Z,1.80
2019-03-18T16:42:25.829Z,2.90
2019-03-18T16:45:05.888Z,3.37
2019-03-18T16:47:34.617Z,3.10
2019-03-18T16:50:03.653Z,2.43
2019-03-18T16:52:36.105Z,2.30
2019-03-18T16:55:03.384Z,1.93
2019-03-18T16:57:48.993Z,2.00
2019-03-18T17:00:18.907Z,1.80
2019-03-18T17:02:47.745Z,1.77
2019-03-18T17:05:16.904Z,2.03
2019-03-18T17:07:45.877Z,2.80
2019-03-18T17:10:14.732Z,4.43
2019-03-18T17:12:43.199Z,12.17
2019-03-18T17:15:12.465Z,6.67
2019-03-18T17:17:41.546Z,2.67
2019-03-18T17:20:11.289Z,2.47
2019-03-18T17:22:48.993Z,3.00
2019-03-18T17:25:11.591Z,3.20
2019-03-18T17:27:40.492Z,4.07
2019-03-18T17:30:13.923Z,4.47
2019-03-18T17:32:42.586Z,4.87
2019-03-18T17:35:11.002Z,4.73
2019-03-18T17:37:39.663Z,4.53
2019-03-18T17:40:08.829Z,3.33
2019-03-18T17:42:37.710Z,4.60
2019-03-18T17:45:07.430Z,9.20
2019-03-18T17:47:36.461Z,15.90
2019-03-18T17:50:06.304Z,15.05
2019-03-18T17:52:35.102Z,8.40
2019-03-18T17:55:04.054Z,7.10
2019-03-18T17:57:32.560Z,10.87
2019-03-18T18:00:01.259Z,16.20
2019-03-18T18:02:30.256Z,5.70
2019-03-18T18:05:03.262Z,4.15
2019-03-18T18:07:29.700Z,3.08
2019-03-18T18:09:58.692Z,3.40
2019-03-18T18:12:27.899Z,2.83
2019-03-18T18:14:59.023Z,2.33
2019-03-18T18:17:27.059Z,2.33
2019-03-18T18:19:56.015Z,2.57
2019-03-18T18:22:25.716Z,2.90
2019-03-18T18:24:54.682Z,3.12
2019-03-18T18:27:23.572Z,3.60
2019-03-18T18:29:52.806Z,3.60
2019-03-18T18:32:21.893Z,4.60
2019-03-18T18:34:55.578Z,4.42
2019-03-18T18:37:24.350Z,5.80
2019-03-18T18:39:52.804Z,3.83
2019-03-18T18:42:21.853Z,4.03
2019-03-18T18:44:50.908Z,4.55
2019-03-18T18:47:21.506Z,5.72
2019-03-18T18:50:06.267Z,4.72
2019-03-18T18:52:35.372Z,42.70
2019-03-18T18:55:26.993Z,29.12
2019-03-18T18:57:57.702Z,15.48
2019-03-18T19:00:35.863Z,12.20
2019-03-18T19:03:05.101Z,11.60
2019-03-18T19:05:34.228Z,8.95
2019-03-18T19:08:02.659Z,6.92
2019-03-18T19:10:31.495Z,8.05
2019-03-18T19:13:00.627Z,7.90
2019-03-18T19:15:29.126Z,7.17
2019-03-18T19:18:04.740Z,7.42
2019-03-18T19:20:35.723Z,5.58
2019-03-18T19:23:04.976Z,7.65
2019-03-18T19:25:33.472Z,7.08
2019-03-18T19:28:01.900Z,5.08
2019-03-18T19:30:45.109Z,4.33
2019-03-18T19:33:20.027Z,6.62
2019-03-18T19:35:49.274Z,6.10
2019-03-18T19:38:30.431Z,7.70
2019-03-18T19:41:10.688Z,8.45
2019-03-18T19:43:36.835Z,7.10
2019-03-18T19:46:05.628Z,7.47
2019-03-18T19:48:34.653Z,7.85
2019-03-18T19:51:03.657Z,9.48
2019-03-18T19:53:32.718Z,9.78
2019-03-18T19:56:01.479Z,8.90
2019-03-18T19:58:35.150Z,8.65
2019-03-18T20:01:04.442Z,6.83
2019-03-18T20:03:32.840Z,9.18
2019-03-18T20:06:01.534Z,7.67
2019-03-18T20:08:30.448Z,6.55
2019-03-18T20:10:58.884Z,11.93
2019-03-18T20:13:27.999Z,10.08
2019-03-18T20:16:01.720Z,10.45
2019-03-18T20:18:30.334Z,10.05
2019-03-18T20:20:59.427Z,8.58
2019-03-18T20:23:28.682Z,6.30
2019-03-18T20:26:00.910Z,5.17
2019-03-18T20:28:30.390Z,5.00
2019-03-18T20:31:04.809Z,4.72
2019-03-18T20:33:34.615Z,4.90
2019-03-18T20:36:04.448Z,4.70
2019-03-18T20:38:33.686Z,5.25
2019-03-18T20:41:03.043Z,6.00
2019-03-18T20:43:32.259Z,5.47
2019-03-18T20:46:01.404Z,5.60
2019-03-18T20:48:30.945Z,7.72
2019-03-18T20:50:59.389Z,7.62
2019-03-18T20:53:28.402Z,7.50
2019-03-18T20:55:57.874Z,6.35
2019-03-18T20:58:26.426Z,4.92
2019-03-18T21:00:55.401Z,5.12
2019-03-18T21:03:24.512Z,6.35
2019-03-18T21:05:53.018Z,6.42
2019-03-18T21:08:22.130Z,8.98
2019-03-18T21:10:50.630Z,14.30
2019-03-18T21:13:19.560Z,14.80
2019-03-18T21:15:48.665Z,7.37
2019-03-18T21:18:17.221Z,4.87
2019-03-18T21:20:45.978Z,5.50
2019-03-18T21:23:14.861Z,5.00
2019-03-18T21:25:43.947Z,5.45
2019-03-18T21:28:12.972Z,5.08
2019-03-18T21:30:42.346Z,8.98
2019-03-18T21:33:10.858Z,10.10
2019-03-18T21:35:39.765Z,10.03
2019-03-18T21:38:08.788Z,11.90
2019-03-18T21:40:37.518Z,9.13
2019-03-18T21:43:06.137Z,8.23
2019-03-18T21:45:35.122Z,6.13
2019-03-18T21:48:04.036Z,5.40
2019-03-18T21:50:32.633Z,6.47
2019-03-18T21:53:01.274Z,5.62
2019-03-18T21:55:30.617Z,5.00
2019-03-18T21:58:00.047Z,5.60
2019-03-18T22:00:29.218Z,4.83
2019-03-18T22:02:57.802Z,7.90
2019-03-18T22:05:26.680Z,8.93
2019-03-18T22:07:55.916Z,8.45
2019-03-18T22:10:24.848Z,7.22
2019-03-18T22:12:53.727Z,6.12
2019-03-18T22:15:22.658Z,5.12
2019-03-18T22:17:51.466Z,5.25
2019-03-18T22:20:20.036Z,4.30
2019-03-18T22:22:49.075Z,3.20
2019-03-18T22:25:17.864Z,3.80
2019-03-18T22:27:46.452Z,3.77
2019-03-18T22:30:15.165Z,3.60
2019-03-18T22:32:44.381Z,4.50
2019-03-18T22:35:13.418Z,3.20
2019-03-18T22:37:42.465Z,3.65
2019-03-18T22:40:11.668Z,3.85
2019-03-18T22:42:40.347Z,3.87
2019-03-18T22:45:09.157Z,2.85
2019-03-18T22:47:37.985Z,3.27
2019-03-18T22:50:06.491Z,3.70
2019-03-18T22:52:35.377Z,3.92
2019-03-18T22:55:08.806Z,3.55
2019-03-18T22:57:37.750Z,2.58
2019-03-18T23:00:15.740Z,3.08
2019-03-18T23:02:44.770Z,3.30
2019-03-18T23:05:15.727Z,3.02
2019-03-18T23:08:00.263Z,2.45
2019-03-18T23:10:31.973Z,2.80
2019-03-18T23:13:04.303Z,2.90
2019-03-18T23:15:35.679Z,3.30
2019-03-18T23:18:07.205Z,3.40
2019-03-18T23:20:36.372Z,2.83
2019-03-18T23:23:07.227Z,3.33
2019-03-18T23:25:38.664Z,3.15
2019-03-18T23:28:07.273Z,2.87
2019-03-18T23:30:35.876Z,2.63
2019-03-18T23:33:04.825Z,2.60
2019-03-18T23:35:36.344Z,2.63
2019-03-18T23:38:05.505Z,3.40
2019-03-18T23:40:34.113Z,3.07
2019-03-18T23:43:03.157Z,2.90
2019-03-18T23:45:31.555Z,2.97
2019-03-18T23:48:00.207Z,3.30
2019-03-18T23:50:29.208Z,2.93
2019-03-18T23:52:58.265Z,2.70
2019-03-18T23:55:26.857Z,3.60
2019-03-18T23:57:55.958Z,3.00
